Time;durP1;ratioP1;P1;durP2;ratioP2;P2;SDS_P1;SDS_P2;PMS_P1;PMS_P2;Temp;Humidity;BMP_temperature;BMP_pressure;BME280_temperature;BME280_humidity;BME280_pressure;Samples;Min_cycle;Max_cycle;Signal;HPM_P1;HPM_P2
2024/01/13 00:01:54;;;;;;;11.60;3.17;;;2.70;99.90;;;;;;5037205;28;20176;-48
2024/01/13 00:04:19;;;;;;;10.07;3.43;;;2.70;99.90;;;;;;5037644;28;20189;-48
2024/01/13 00:06:45;;;;;;;10.83;3.23;;;2.70;99.90;;;;;;5037751;28;20193;-47
2024/01/13 00:09:10;;;;;;;11.60;2.63;;;2.70;99.90;;;;;;5037025;28;20241;-48
2024/01/13 00:11:36;;;;;;;6.13;2.80;;;2.70;99.90;;;;;;5037860;28;20203;-49
2024/01/13 00:14:02;;;;;;;8.33;2.90;;;2.70;99.90;;;;;;5037633;28;20778;-49
2024/01/13 00:16:27;;;;;;;9.03;3.20;;;2.70;99.90;;;;;;5037785;28;20593;-49
2024/01/13 00:18:54;;;;;;;5.00;2.87;;;2.70;99.90;;;;;;5038383;28;20650;-49
2024/01/13 00:21:20;;;;;;;10.30;3.60;;;2.70;99.90;;;;;;5037116;28;20497;-48
2024/01/13 00:23:45;;;;;;;6.63;2.57;;;2.70;99.90;;;;;;5037578;28;20207;-49
2024/01/13 00:26:11;;;;;;;6.50;2.60;;;2.70;99.90;;;;;;5037813;28;20264;-48
2024/01/13 00:28:37;;;;;;;5.80;3.00;;;2.70;99.90;;;;;;5037502;28;20197;-48
2024/01/13 00:31:04;;;;;;;13.73;3.10;;;2.70;99.90;;;;;;5037289;28;20190;-49
2024/01/13 00:33:30;;;;;;;13.97;3.07;;;2.70;99.90;;;;;;5037693;28;20189;-49
2024/01/13 00:35:55;;;;;;;5.37;2.77;;;2.70;99.90;;;;;;5036697;28;20462;-48
2024/01/13 00:38:21;;;;;;;8.23;3.33;;;2.60;99.90;;;;;;5038154;28;20187;-49
2024/01/13 00:40:46;;;;;;;4.80;2.73;;;2.60;99.90;;;;;;5037538;28;20179;-48
2024/01/13 00:43:12;;;;;;;10.50;2.50;;;2.60;99.90;;;;;;5032493;28;20183;-48
2024/01/13 00:45:37;;;;;;;6.73;1.97;;;2.60;99.90;;;;;;5033897;28;20185;-48
2024/01/13 00:48:04;;;;;;;8.63;2.90;;;2.60;99.90;;;;;;5034438;28;20189;-48
2024/01/13 00:50:29;;;;;;;4.40;2.33;;;2.70;99.90;;;;;;5033656;28;20187;-49
2024/01/13 00:52:55;;;;;;;8.73;2.80;;;2.70;99.90;;;;;;5034619;28;20493;-49
2024/01/13 00:55:20;;;;;;;10.40;2.70;;;2.70;99.90;;;;;;5034333;28;20224;-48
2024/01/13 00:57:46;;;;;;;7.13;3.20;;;2.70;99.90;;;;;;5033845;28;20193;-48
2024/01/13 01:00:12;;;;;;;7.53;3.00;;;2.70;99.90;;;;;;5034229;28;20171;-48
2024/01/13 01:02:37;;;;;;;7.40;3.30;;;2.70;99.90;;;;;;5034083;28;20187;-47
2024/01/13 01:05:04;;;;;;;8.20;4.07;;;2.70;99.90;;;;;;5033887;28;20670;-48
2024/01/13 01:07:29;;;;;;;12.43;4.50;;;2.70;99.90;;;;;;5032643;28;20542;-49
2024/01/13 01:09:55;;;;;;;9.13;4.60;;;2.70;99.90;;;;;;5034744;28;20546;-48
2024/01/13 01:12:20;;;;;;;11.33;4.33;;;2.70;99.90;;;;;;5033846;28;20178;-48
2024/01/13 01:14:46;;;;;;;10.90;4.37;;;2.70;99.90;;;;;;5033760;28;20216;-48
2024/01/13 01:17:11;;;;;;;11.97;4.70;;;2.70;99.90;;;;;;5033068;28;20186;-49
2024/01/13 01:19:37;;;;;;;13.87;5.17;;;2.70;99.90;;;;;;5033494;28;20548;-48
2024/01/13 01:22:03;;;;;;;18.50;5.30;;;2.70;99.90;;;;;;5033664;28;20182;-48
2024/01/13 01:24:28;;;;;;;16.50;6.00;;;2.70;99.90;;;;;;5033008;28;20757;-51
2024/01/13 01:26:54;;;;;;;15.10;5.60;;;2.70;99.90;;;;;;5033629;28;20193;-48
2024/01/13 01:29:19;;;;;;;14.80;5.90;;;2.70;99.90;;;;;;5033391;28;20176;-48
2024/01/13 01:31:45;;;;;;;10.90;5.43;;;2.70;99.90;;;;;;5032662;28;20221;-48
2024/01/13 01:34:10;;;;;;;15.73;5.67;;;2.70;99.90;;;;;;5032530;28;20218;-49
2024/01/13 01:36:36;;;;;;;14.00;5.00;;;2.70;99.90;;;;;;5033668;28;20191;-49
2024/01/13 01:39:01;;;;;;;12.13;4.63;;;2.70;99.90;;;;;;5032732;28;20175;-48
2024/01/13 01:41:27;;;;;;;19.40;5.53;;;2.70;99.90;;;;;;5033682;28;20180;-49
2024/01/13 01:43:52;;;;;;;13.03;4.83;;;2.70;99.90;;;;;;5032718;28;20186;-49
2024/01/13 01:46:22;;;;;;;10.93;4.37;;;2.70;99.90;;;;;;5033745;28;20186;-49
2024/01/13 01:48:55;;;;;;;11.77;4.20;;;2.60;99.90;;;;;;5033511;28;20219;-48
2024/01/13 01:51:22;;;;;;;12.07;3.87;;;2.70;99.90;;;;;;5033362;28;20408;-47
2024/01/13 01:53:49;;;;;;;7.90;3.60;;;2.70;99.90;;;;;;5031987;28;20493;-47
2024/01/13 01:56:19;;;;;;;14.40;3.63;;;2.60;99.90;;;;;;5033232;28;20431;-49
2024/01/13 01:58:46;;;;;;;17.97;3.43;;;2.70;99.90;;;;;;5032817;28;20427;-49
2024/01/13 02:01:13;;;;;;;7.03;3.10;;;2.70;99.90;;;;;;5032723;28;20429;-48
2024/01/13 02:03:39;;;;;;;8.90;3.10;;;2.80;99.90;;;;;;5032447;28;20428;-48
2024/01/13 02:06:06;;;;;;;5.43;2.90;;;2.80;99.90;;;;;;5032572;28;20433;-48
2024/01/13 02:08:32;;;;;;;10.83;2.57;;;2.80;99.90;;;;;;5032574;28;20485;-48
2024/01/13 02:10:58;;;;;;;7.53;3.17;;;2.80;99.90;;;;;;5032864;28;20430;-49
2024/01/13 02:13:23;;;;;;;13.10;2.70;;;2.70;99.90;;;;;;5032078;28;20417;-49
2024/01/13 02:15:49;;;;;;;10.57;3.80;;;2.70;99.90;;;;;;5032435;28;20461;-49
2024/01/13 02:18:14;;;;;;;12.73;3.37;;;2.70;99.90;;;;;;5032643;28;20237;-48
2024/01/13 02:20:40;;;;;;;8.90;4.23;;;2.80;99.90;;;;;;5032070;28;20276;-48
2024/01/13 02:23:05;;;;;;;6.73;2.90;;;2.80;99.90;;;;;;5032529;28;20199;-48
2024/01/13 02:25:31;;;;;;;9.60;3.20;;;2.80;99.90;;;;;;5031724;28;20191;-48
2024/01/13 02:27:57;;;;;;;10.03;2.93;;;2.80;99.90;;;;;;5032412;28;20175;-48
2024/01/13 02:30:22;;;;;;;5.40;2.97;;;2.70;99.90;;;;;;5032390;28;20179;-48
2024/01/13 02:32:48;;;;;;;8.13;3.47;;;2.80;99.90;;;;;;5032783;28;20642;-48
2024/01/13 02:35:13;;;;;;;8.20;3.50;;;2.70;99.90;;;;;;5031626;28;20207;-48
2024/01/13 02:37:40;;;;;;;7.10;3.63;;;2.80;99.90;;;;;;5031669;28;20278;-49
2024/01/13 02:40:09;;;;;;;14.93;3.30;;;2.80;99.90;;;;;;5032420;28;20563;-48
2024/01/13 02:42:35;;;;;;;9.57;4.20;;;2.80;99.90;;;;;;5032329;28;20418;-48
2024/01/13 02:45:01;;;;;;;12.57;3.70;;;2.80;99.90;;;;;;5031865;28;20488;-48
2024/01/13 02:47:45;;;;;;;7.77;3.23;;;2.80;99.90;;;;;;5032184;28;20421;-48
2024/01/13 02:50:11;;;;;;;7.43;3.50;;;2.80;99.90;;;;;;5031812;28;20203;-48
2024/01/13 02:52:37;;;;;;;7.63;3.50;;;2.80;99.90;;;;;;5032670;28;20414;-48
2024/01/13 02:55:03;;;;;;;11.23;3.57;;;2.80;99.90;;;;;;5031962;28;20862;-48
2024/01/13 02:57:29;;;;;;;7.23;3.70;;;2.80;99.90;;;;;;5031205;28;20192;-48
2024/01/13 02:59:54;;;;;;;11.27;4.07;;;2.80;99.90;;;;;;5031736;28;20180;-48
2024/01/13 03:02:20;;;;;;;9.10;4.67;;;2.80;99.90;;;;;;5032121;28;20180;-48
2024/01/13 03:04:45;;;;;;;10.57;4.90;;;2.70;99.90;;;;;;5031252;28;20187;-47
2024/01/13 03:07:11;;;;;;;10.60;4.33;;;2.70;99.90;;;;;;5031940;28;20685;-49
2024/01/13 03:09:36;;;;;;;18.60;4.20;;;2.80;99.90;;;;;;5030377;28;20247;-49
2024/01/13 03:12:02;;;;;;;8.33;4.50;;;2.70;99.90;;;;;;5031933;28;20182;-49
2024/01/13 03:14:29;;;;;;;15.37;4.77;;;2.70;99.90;;;;;;5032078;28;20208;-49
2024/01/13 03:16:55;;;;;;;13.30;4.50;;;2.80;99.90;;;;;;5031282;28;20240;-48
2024/01/13 03:19:20;;;;;;;6.97;3.73;;;2.70;99.90;;;;;;5030745;28;20417;-49
2024/01/13 03:21:46;;;;;;;16.70;3.90;;;2.80;99.90;;;;;;5031878;28;20192;-48
2024/01/13 03:24:11;;;;;;;9.30;4.17;;;2.80;99.90;;;;;;5031625;28;20188;-49
2024/01/13 03:26:37;;;;;;;6.90;3.97;;;2.80;99.90;;;;;;5031130;28;20187;-49
2024/01/13 03:29:03;;;;;;;10.70;5.17;;;2.80;99.90;;;;;;5031806;28;20189;-49
2024/01/13 03:31:28;;;;;;;8.83;4.20;;;2.80;99.90;;;;;;5030308;28;20265;-49
2024/01/13 03:33:54;;;;;;;9.73;4.10;;;2.80;99.90;;;;;;5032041;28;20189;-49
2024/01/13 03:36:19;;;;;;;7.07;3.47;;;2.80;99.90;;;;;;5031585;28;20577;-48
2024/01/13 03:38:45;;;;;;;7.27;3.47;;;2.80;99.90;;;;;;5031410;28;20221;-48
2024/01/13 03:41:15;;;;;;;6.50;3.80;;;2.70;99.90;;;;;;5031142;28;20254;-49
2024/01/13 03:43:41;;;;;;;7.00;4.13;;;2.80;99.90;;;;;;5030949;28;20260;-48
2024/01/13 03:46:07;;;;;;;9.97;4.17;;;2.80;99.90;;;;;;5031822;28;20511;-48
2024/01/13 03:48:32;;;;;;;5.60;3.50;;;2.80;99.90;;;;;;5031466;28;20187;-49
2024/01/13 03:50:59;;;;;;;9.80;4.00;;;2.80;99.90;;;;;;5032125;28;20185;-48
2024/01/13 03:53:25;;;;;;;10.80;4.00;;;2.70;99.90;;;;;;5031393;28;20544;-48
2024/01/13 03:55:50;;;;;;;7.60;4.03;;;2.70;99.90;;;;;;5030928;28;20475;-48
2024/01/13 03:58:16;;;;;;;9.03;4.20;;;2.70;99.90;;;;;;5030829;28;20205;-48
2024/01/13 04:00:42;;;;;;;8.93;4.53;;;2.70;99.90;;;;;;5031376;28;20229;-48
2024/01/13 04:03:07;;;;;;;9.17;4.73;;;2.70;99.90;;;;;;5031427;28;20268;-48
2024/01/13 04:05:34;;;;;;;9.40;4.97;;;2.70;99.90;;;;;;5031410;28;20179;-48
2024/01/13 04:07:59;;;;;;;11.63;5.30;;;2.80;99.90;;;;;;5030355;28;20279;-48
2024/01/13 04:10:25;;;;;;;13.23;6.53;;;2.80;99.90;;;;;;5032129;28;20923;-48
2024/01/13 04:12:51;;;;;;;14.50;6.47;;;2.80;99.90;;;;;;5030585;28;20186;-49
2024/01/13 04:15:16;;;;;;;17.17;7.10;;;2.80;99.90;;;;;;5030923;28;20206;-49
2024/01/13 04:17:42;;;;;;;14.90;6.63;;;2.70;99.90;;;;;;5034874;28;20210;-48
2024/01/13 04:20:08;;;;;;;16.30;6.63;;;2.70;99.90;;;;;;5034546;28;20180;-48
2024/01/13 04:22:33;;;;;;;16.10;6.77;;;2.70;99.90;;;;;;5033877;28;20678;-49
2024/01/13 04:24:59;;;;;;;17.00;7.20;;;2.80;99.90;;;;;;5034784;28;20425;-49
2024/01/13 04:27:24;;;;;;;15.10;6.97;;;2.80;99.90;;;;;;5035025;28;20588;-48
2024/01/13 04:29:50;;;;;;;10.70;5.03;;;2.80;99.90;;;;;;5035303;28;20181;-49
2024/01/13 04:32:16;;;;;;;11.07;5.23;;;2.80;99.90;;;;;;5034040;28;20179;-49
2024/01/13 04:34:41;;;;;;;9.83;4.33;;;2.80;99.90;;;;;;5034994;28;20274;-48
2024/01/13 04:37:07;;;;;;;11.07;5.03;;;2.80;99.90;;;;;;5034511;28;20525;-49
2024/01/13 04:39:32;;;;;;;10.30;4.40;;;2.80;99.90;;;;;;5034429;28;20684;-48
2024/01/13 04:41:58;;;;;;;10.90;4.63;;;2.70;99.90;;;;;;5034185;28;20210;-49
2024/01/13 04:44:23;;;;;;;7.07;3.60;;;2.70;99.90;;;;;;5034777;28;20187;-48
2024/01/13 04:46:49;;;;;;;8.40;3.83;;;2.70;99.90;;;;;;5034036;28;20189;-49
2024/01/13 04:49:15;;;;;;;7.20;3.53;;;2.80;99.90;;;;;;5034337;28;20180;-48
2024/01/13 04:51:40;;;;;;;7.07;3.43;;;2.70;99.90;;;;;;5034443;28;20190;-48
2024/01/13 04:54:06;;;;;;;7.07;3.80;;;2.70;99.90;;;;;;5033138;28;20194;-48
2024/01/13 04:56:31;;;;;;;8.67;4.07;;;2.70;99.90;;;;;;5033495;28;20275;-48
2024/01/13 04:58:57;;;;;;;10.57;4.60;;;2.70;99.90;;;;;;5034506;28;20182;-48
2024/01/13 05:01:23;;;;;;;11.80;4.50;;;2.70;99.90;;;;;;5033291;28;20189;-49
2024/01/13 05:03:49;;;;;;;8.67;4.27;;;2.70;99.90;;;;;;5034376;28;20628;-48
2024/01/13 05:06:15;;;;;;;9.97;3.40;;;2.70;99.90;;;;;;5033802;28;20466;-49
2024/01/13 05:08:41;;;;;;;9.17;4.50;;;2.70;99.90;;;;;;5034034;28;20239;-49
2024/01/13 05:11:07;;;;;;;6.47;3.70;;;2.80;99.90;;;;;;5034493;28;20499;-49
2024/01/13 05:13:33;;;;;;;11.33;3.93;;;2.70;99.90;;;;;;5033572;28;20510;-49
2024/01/13 05:15:59;;;;;;;9.30;4.07;;;2.70;99.90;;;;;;5033690;28;21032;-49
2024/01/13 05:18:25;;;;;;;13.53;4.60;;;2.70;99.90;;;;;;5033881;28;20190;-49
2024/01/13 05:20:50;;;;;;;10.00;4.90;;;2.70;99.90;;;;;;5033982;28;20265;-48
2024/01/13 05:23:16;;;;;;;9.00;4.50;;;2.70;99.90;;;;;;5033429;28;20445;-49
2024/01/13 05:25:42;;;;;;;9.50;4.67;;;2.70;99.90;;;;;;5033341;28;20253;-49
2024/01/13 05:28:07;;;;;;;9.77;4.67;;;2.70;99.90;;;;;;5033577;28;20236;-49
2024/01/13 05:30:33;;;;;;;11.70;4.77;;;2.70;99.90;;;;;;5033307;28;20780;-49
2024/01/13 05:32:59;;;;;;;12.60;6.17;;;2.60;99.90;;;;;;5033397;28;20178;-51
2024/01/13 05:35:25;;;;;;;11.60;5.40;;;2.70;99.90;;;;;;5033395;28;20217;-49
2024/01/13 05:37:51;;;;;;;14.10;5.00;;;2.70;99.90;;;;;;5033530;28;20822;-49
2024/01/13 05:40:16;;;;;;;14.77;5.60;;;2.70;99.90;;;;;;5032930;28;20414;-48
2024/01/13 05:42:42;;;;;;;20.73;5.90;;;2.80;99.90;;;;;;5032808;28;20187;-49
2024/01/13 05:45:08;;;;;;;11.63;5.80;;;2.80;99.90;;;;;;5033382;28;20221;-49
2024/01/13 05:47:34;;;;;;;11.27;5.30;;;2.80;99.90;;;;;;5033444;28;20632;-49
2024/01/13 05:50:00;;;;;;;13.17;5.27;;;2.80;99.90;;;;;;5033261;28;20499;-49
2024/01/13 05:52:26;;;;;;;12.60;6.07;;;2.80;99.90;;;;;;5032767;28;20183;-49
2024/01/13 05:54:51;;;;;;;11.70;5.47;;;2.80;99.90;;;;;;5032898;28;20465;-49
2024/01/13 05:57:17;;;;;;;11.23;4.77;;;2.80;99.90;;;;;;5033276;28;20190;-50
2024/01/13 05:59:42;;;;;;;11.17;4.57;;;2.70;99.90;;;;;;5032771;28;20185;-49
2024/01/13 06:02:08;;;;;;;8.67;4.90;;;2.70;99.90;;;;;;5032992;28;20213;-49
2024/01/13 06:04:33;;;;;;;10.00;5.00;;;2.70;99.90;;;;;;5032383;28;20189;-49
2024/01/13 06:06:59;;;;;;;8.40;4.70;;;2.70;99.90;;;;;;5032919;28;20222;-49
2024/01/13 06:09:25;;;;;;;8.53;4.73;;;2.80;99.90;;;;;;5033723;28;20699;-49
2024/01/13 06:11:50;;;;;;;12.30;5.00;;;2.80;99.90;;;;;;5031775;28;20667;-49
2024/01/13 06:14:16;;;;;;;10.60;5.17;;;2.80;99.90;;;;;;5032010;28;20217;-48
2024/01/13 06:16:41;;;;;;;10.30;5.30;;;2.80;99.90;;;;;;5032881;28;20187;-48
2024/01/13 06:19:07;;;;;;;14.40;5.67;;;2.70;99.90;;;;;;5032769;28;20184;-48
2024/01/13 06:21:39;;;;;;;14.33;5.90;;;2.70;99.90;;;;;;5032809;28;20672;-48
2024/01/13 06:24:05;;;;;;;10.73;5.23;;;2.80;99.90;;;;;;5032199;28;20186;-50
2024/01/13 06:26:30;;;;;;;16.27;5.57;;;2.80;99.90;;;;;;5032679;28;20511;-49
2024/01/13 06:28:56;;;;;;;10.50;5.57;;;2.70;99.90;;;;;;5032580;28;20181;-48
2024/01/13 06:31:21;;;;;;;10.37;5.77;;;2.80;99.90;;;;;;5032258;28;20238;-49
2024/01/13 06:33:47;;;;;;;17.80;5.20;;;2.80;99.90;;;;;;5032440;28;20200;-49
2024/01/13 06:36:14;;;;;;;8.90;4.63;;;2.80;99.90;;;;;;5031760;28;20230;-49
2024/01/13 06:38:39;;;;;;;8.23;4.50;;;2.80;99.90;;;;;;5032319;28;20179;-49
2024/01/13 06:41:05;;;;;;;12.10;5.33;;;2.80;99.90;;;;;;5031449;28;20987;-49
2024/01/13 06:43:30;;;;;;;10.00;5.63;;;2.80;99.90;;;;;;5031443;28;20693;-49
2024/01/13 06:45:56;;;;;;;10.30;5.00;;;2.80;99.90;;;;;;5032651;28;20647;-49
2024/01/13 06:48:21;;;;;;;12.93;6.30;;;2.80;99.90;;;;;;5032082;28;20182;-48
2024/01/13 06:50:47;;;;;;;6.90;4.20;;;2.80;99.90;;;;;;5031731;28;20317;-50
2024/01/13 06:53:13;;;;;;;13.00;6.30;;;2.80;99.90;;;;;;5032332;28;20237;-48
2024/01/13 06:55:38;;;;;;;16.60;6.10;;;2.80;99.90;;;;;;5031258;28;20288;-49
2024/01/13 06:58:04;;;;;;;11.90;5.87;;;2.80;99.90;;;;;;5032468;28;20191;-49
2024/01/13 07:00:29;;;;;;;11.80;6.50;;;2.80;99.90;;;;;;5031589;28;20175;-49
2024/01/13 07:02:55;;;;;;;10.97;5.73;;;2.70;99.90;;;;;;5031907;28;20180;-48
2024/01/13 07:05:20;;;;;;;12.27;6.20;;;2.70;99.90;;;;;;5031710;28;20183;-48
2024/01/13 07:07:46;;;;;;;12.77;6.30;;;2.70;99.90;;;;;;5031024;28;20189;-49
2024/01/13 07:10:12;;;;;;;11.33;5.93;;;2.70;99.90;;;;;;5032155;28;20574;-48
2024/01/13 07:12:37;;;;;;;11.23;5.03;;;2.70;99.90;;;;;;5031790;28;20557;-48
2024/01/13 07:15:03;;;;;;;8.97;4.70;;;2.70;99.90;;;;;;5030762;28;20211;-47
2024/01/13 07:17:29;;;;;;;9.03;5.03;;;2.70;99.90;;;;;;5031143;28;20187;-49
2024/01/13 07:19:54;;;;;;;11.83;5.43;;;2.70;99.90;;;;;;5032521;28;20417;-49
2024/01/13 07:22:20;;;;;;;12.60;5.60;;;2.70;99.90;;;;;;5031587;28;20754;-49
2024/01/13 07:24:45;;;;;;;11.17;5.70;;;2.70;99.90;;;;;;5031037;28;20724;-49
2024/01/13 07:27:12;;;;;;;12.23;5.70;;;2.70;99.90;;;;;;5031032;28;20224;-49
2024/01/13 07:29:38;;;;;;;8.40;5.30;;;2.70;99.90;;;;;;5031544;28;20643;-50
2024/01/13 07:32:03;;;;;;;12.07;5.57;;;2.70;99.90;;;;;;5031552;28;20423;-49
2024/01/13 07:34:29;;;;;;;8.43;4.90;;;2.70;99.90;;;;;;5031682;28;20264;-50
2024/01/13 07:36:55;;;;;;;10.33;4.90;;;2.70;99.90;;;;;;5030745;28;20222;-49
2024/01/13 07:39:21;;;;;;;8.40;4.47;;;2.80;99.90;;;;;;5031168;28;20187;-50
2024/01/13 07:41:48;;;;;;;8.87;5.23;;;2.80;99.90;;;;;;5031751;28;20433;-49
2024/01/13 07:44:14;;;;;;;8.60;4.73;;;2.90;99.90;;;;;;5031061;28;20266;-49
2024/01/13 07:46:41;;;;;;;6.90;4.50;;;2.90;99.90;;;;;;5030530;28;20438;-49
2024/01/13 07:49:07;;;;;;;9.33;5.10;;;2.90;99.90;;;;;;5031313;28;20415;-50
2024/01/13 07:51:32;;;;;;;7.70;4.27;;;2.90;99.90;;;;;;5032894;28;20421;-49
2024/01/13 07:53:58;;;;;;;6.70;3.03;;;2.80;99.90;;;;;;5036235;28;20211;-49
2024/01/13 07:56:24;;;;;;;8.23;3.90;;;2.80;99.90;;;;;;5035504;28;20281;-49
2024/01/13 07:58:50;;;;;;;3.90;3.07;;;2.90;99.90;;;;;;5035126;28;20183;-49
2024/01/13 08:01:15;;;;;;;7.57;3.43;;;2.90;99.90;;;;;;5034790;28;20422;-50
2024/01/13 08:03:41;;;;;;;7.67;3.10;;;2.90;99.90;;;;;;5035289;28;20180;-49
2024/01/13 08:06:07;;;;;;;3.87;3.00;;;2.90;99.90;;;;;;5034526;28;20628;-49
2024/01/13 08:08:32;;;;;;;7.10;3.73;;;2.90;99.90;;;;;;5034845;28;20334;-49
2024/01/13 08:10:58;;;;;;;5.40;3.40;;;2.90;99.90;;;;;;5035747;28;20187;-49
2024/01/13 08:13:23;;;;;;;4.10;2.80;;;2.90;99.90;;;;;;5034838;28;20246;-48
2024/01/13 08:15:49;;;;;;;5.67;3.50;;;3.00;99.90;;;;;;5034222;28;20202;-48
2024/01/13 08:18:15;;;;;;;5.77;3.03;;;3.00;99.90;;;;;;5035053;28;20533;-49
2024/01/13 08:20:40;;;;;;;9.10;3.90;;;3.00;99.90;;;;;;5035059;28;20185;-48
2024/01/13 08:23:06;;;;;;;9.00;4.77;;;3.00;99.90;;;;;;5034850;28;20183;-49
2024/01/13 08:25:31;;;;;;;9.17;3.60;;;3.00;99.90;;;;;;5034558;28;20985;-49
2024/01/13 08:27:57;;;;;;;5.87;3.40;;;3.00;99.90;;;;;;5035167;28;20172;-50
2024/01/13 08:30:22;;;;;;;8.13;3.40;;;3.00;99.90;;;;;;5035402;28;20176;-49
2024/01/13 08:32:49;;;;;;;4.20;3.13;;;3.00;99.90;;;;;;5033802;28;20180;-50
2024/01/13 08:35:14;;;;;;;6.47;3.77;;;3.00;99.90;;;;;;5034236;28;20207;-50
2024/01/13 08:37:40;;;;;;;8.30;3.60;;;3.00;99.90;;;;;;5034544;28;20425;-49
2024/01/13 08:40:08;;;;;;;3.47;3.17;;;3.00;99.90;;;;;;5034517;28;20176;-50
2024/01/13 08:42:37;;;;;;;7.10;4.53;;;3.00;99.90;;;;;;5034250;28;20358;-50
2024/01/13 08:45:04;;;;;;;5.23;4.33;;;3.00;99.90;;;;;;5034710;28;20430;-49
2024/01/13 08:47:30;;;;;;;6.17;4.20;;;3.00;99.90;;;;;;5033627;28;20431;-51
2024/01/13 08:49:56;;;;;;;6.27;4.00;;;3.00;99.90;;;;;;5034571;28;20429;-49
2024/01/13 08:52:21;;;;;;;8.30;3.60;;;3.00;99.90;;;;;;5034598;28;20771;-50
2024/01/13 08:54:47;;;;;;;7.33;3.90;;;3.00;99.90;;;;;;5034754;28;20552;-49
2024/01/13 08:57:12;;;;;;;5.50;3.43;;;3.00;99.90;;;;;;5033783;28;20609;-49
2024/01/13 08:59:38;;;;;;;4.77;3.47;;;3.00;99.90;;;;;;5033725;28;20663;-49
2024/01/13 09:02:06;;;;;;;4.60;2.97;;;3.10;99.90;;;;;;5033279;28;20222;-49
2024/01/13 09:04:32;;;;;;;4.83;3.17;;;3.10;99.90;;;;;;5033566;28;20429;-49
2024/01/13 09:06:57;;;;;;;7.37;4.00;;;3.10;99.90;;;;;;5034541;28;20766;-49
2024/01/13 09:09:23;;;;;;;8.97;3.50;;;3.20;99.90;;;;;;5033675;28;20265;-50
2024/01/13 09:11:48;;;;;;;6.20;4.57;;;3.20;99.90;;;;;;5033902;28;20226;-49
2024/01/13 09:14:14;;;;;;;9.30;4.80;;;3.20;99.90;;;;;;5033949;28;20184;-50
2024/01/13 09:16:40;;;;;;;7.07;3.70;;;3.20;99.90;;;;;;5033854;28;20186;-49
2024/01/13 09:19:05;;;;;;;5.23;3.80;;;3.30;99.90;;;;;;5034026;28;20190;-50
2024/01/13 09:21:31;;;;;;;6.13;3.13;;;3.30;99.90;;;;;;5033607;28;20267;-50
2024/01/13 09:23:57;;;;;;;6.30;2.97;;;3.30;99.90;;;;;;5033159;28;20182;-49
2024/01/13 09:26:24;;;;;;;3.03;2.73;;;3.30;99.90;;;;;;5033728;28;20195;-53
2024/01/13 09:28:49;;;;;;;6.80;3.20;;;3.30;99.90;;;;;;5034054;28;20422;-50
2024/01/13 09:31:15;;;;;;;6.57;3.10;;;3.40;99.90;;;;;;5033125;28;20413;-49
2024/01/13 09:33:41;;;;;;;6.57;3.80;;;3.40;99.90;;;;;;5033721;28;20178;-50
2024/01/13 09:36:06;;;;;;;3.80;2.93;;;3.40;99.90;;;;;;5032507;28;20211;-50
2024/01/13 09:38:32;;;;;;;3.67;2.70;;;3.30;99.90;;;;;;5033601;28;20196;-50
2024/01/13 09:40:58;;;;;;;5.27;3.00;;;3.30;99.90;;;;;;5033721;28;20190;-52
2024/01/13 09:44:05;;;;;;;5.40;3.13;;;3.30;99.90;;;;;;5032881;28;20177;-50
2024/01/13 09:46:31;;;;;;;3.67;2.90;;;3.30;99.90;;;;;;5025337;28;20430;-49
2024/01/13 09:48:58;;;;;;;3.80;3.40;;;3.30;99.90;;;;;;5033681;28;20464;-48
2024/01/13 09:51:24;;;;;;;8.80;3.60;;;3.40;99.90;;;;;;5033372;28;20259;-48
2024/01/13 09:53:57;;;;;;;3.80;2.70;;;3.40;99.90;;;;;;5032841;28;20968;-49
2024/01/13 09:56:31;;;;;;;3.10;2.33;;;3.30;99.90;;;;;;5033229;28;20458;-49
2024/01/13 09:58:56;;;;;;;2.40;2.17;;;3.40;99.90;;;;;;5033111;28;20476;-49
2024/01/13 10:01:23;;;;;;;2.80;2.20;;;3.40;99.90;;;;;;5032715;28;20975;-49
2024/01/13 10:03:49;;;;;;;2.90;2.53;;;3.40;99.90;;;;;;5032565;28;20213;-49
2024/01/13 10:06:16;;;;;;;4.00;2.70;;;3.40;99.90;;;;;;5032718;28;20914;-49
2024/01/13 10:08:42;;;;;;;3.83;2.80;;;3.40;99.90;;;;;;5031898;28;20336;-49
2024/01/13 10:11:07;;;;;;;5.20;3.17;;;3.40;99.90;;;;;;5032727;28;20493;-49
2024/01/13 10:13:33;;;;;;;5.70;3.47;;;3.40;99.90;;;;;;5032680;28;20975;-49
2024/01/13 10:15:59;;;;;;;4.80;3.40;;;3.40;99.90;;;;;;5032547;28;20198;-52
2024/01/13 10:18:25;;;;;;;3.30;3.00;;;3.50;99.90;;;;;;5033284;28;20191;-49
2024/01/13 10:20:51;;;;;;;3.30;3.00;;;3.50;99.90;;;;;;5032064;28;20182;-50
2024/01/13 10:23:17;;;;;;;3.90;3.13;;;3.50;99.90;;;;;;5032845;28;20421;-50
2024/01/13 10:25:42;;;;;;;3.40;2.73;;;3.50;99.90;;;;;;5031644;28;20444;-49
2024/01/13 10:28:08;;;;;;;3.63;3.10;;;3.50;99.90;;;;;;5032829;28;20852;-49
2024/01/13 10:30:34;;;;;;;5.70;3.20;;;3.50;99.90;;;;;;5032897;28;20183;-49
2024/01/13 10:33:00;;;;;;;5.73;3.73;;;3.50;99.90;;;;;;5032232;28;20175;-49
2024/01/13 10:35:29;;;;;;;3.67;3.17;;;3.50;99.90;;;;;;5032229;28;20207;-49
2024/01/13 10:37:58;;;;;;;5.03;3.20;;;3.50;99.90;;;;;;5031877;28;20435;-49
2024/01/13 10:40:24;;;;;;;4.50;2.87;;;3.50;99.90;;;;;;5032952;28;20470;-49
2024/01/13 10:42:55;;;;;;;6.10;3.40;;;3.50;99.90;;;;;;5031549;28;20413;-49
2024/01/13 10:45:25;;;;;;;6.40;3.60;;;3.50;99.90;;;;;;5032677;28;20754;-49
2024/01/13 10:47:52;;;;;;;5.20;3.10;;;3.50;99.90;;;;;;5034108;28;20417;-48
2024/01/13 10:50:19;;;;;;;6.30;4.23;;;3.50;99.90;;;;;;5034071;28;20418;-49
2024/01/13 10:53:06;;;;;;;7.87;3.97;;;3.60;99.90;;;;;;5034182;28;20478;-49
2024/01/13 10:55:32;;;;;;;6.43;4.03;;;3.60;99.90;;;;;;5033868;28;20460;-50
2024/01/13 10:58:01;;;;;;;6.60;4.37;;;3.70;99.90;;;;;;5034119;28;20429;-50
2024/01/13 11:00:28;;;;;;;6.37;3.60;;;3.70;99.90;;;;;;5033862;28;20426;-49
2024/01/13 11:02:55;;;;;;;8.53;4.33;;;3.70;99.90;;;;;;5033677;28;20574;-50
2024/01/13 11:05:22;;;;;;;5.10;3.57;;;3.80;99.90;;;;;;5033838;28;20438;-51
2024/01/13 11:07:48;;;;;;;6.60;3.60;;;3.80;99.90;;;;;;5033638;28;20411;-50
2024/01/13 11:10:22;;;;;;;6.50;4.00;;;3.80;99.90;;;;;;5034035;28;20405;-49
2024/01/13 11:13:05;;;;;;;5.97;3.00;;;3.80;99.90;;;;;;5033851;28;20403;-49
2024/01/13 11:15:48;;;;;;;4.20;3.00;;;3.80;99.90;;;;;;5033869;28;20465;-50
2024/01/13 11:18:17;;;;;;;5.20;3.43;;;3.80;99.90;;;;;;5033416;28;21062;-50
2024/01/13 11:21:01;;;;;;;4.67;2.80;;;3.80;99.90;;;;;;5033097;28;20512;-49
2024/01/13 11:23:27;;;;;;;3.87;2.90;;;3.70;99.90;;;;;;5033510;28;20462;-48
2024/01/13 11:25:53;;;;;;;3.83;2.60;;;3.80;99.90;;;;;;5032695;28;20453;-49
2024/01/13 11:28:20;;;;;;;6.53;3.30;;;3.70;99.90;;;;;;5033760;28;20179;-50
2024/01/13 11:30:49;;;;;;;6.33;2.73;;;3.80;99.90;;;;;;5033240;28;20631;-50
2024/01/13 11:33:17;;;;;;;4.77;3.27;;;3.80;99.90;;;;;;5033367;28;20510;-50
2024/01/13 11:35:46;;;;;;;5.43;3.83;;;3.80;99.90;;;;;;5033348;28;20918;-51
2024/01/13 11:38:15;;;;;;;6.30;4.10;;;3.80;99.90;;;;;;5033097;28;20464;-50
2024/01/13 11:40:48;;;;;;;6.30;3.07;;;3.80;99.90;;;;;;5033052;28;20898;-49
2024/01/13 11:43:26;;;;;;;8.03;3.80;;;3.80;99.90;;;;;;5033454;28;20409;-47
2024/01/13 11:45:52;;;;;;;7.80;3.90;;;3.80;99.90;;;;;;5033134;28;20917;-49
2024/01/13 11:48:30;;;;;;;6.00;3.80;;;3.90;99.90;;;;;;5033662;28;20804;-48
2024/01/13 11:50:56;;;;;;;5.10;3.83;;;3.90;99.90;;;;;;5033054;28;20428;-50
2024/01/13 11:53:35;;;;;;;7.50;3.17;;;3.90;99.90;;;;;;5033064;28;20430;-49
2024/01/13 11:56:01;;;;;;;6.00;3.80;;;3.90;99.90;;;;;;5032793;28;20232;-49
2024/01/13 11:58:27;;;;;;;5.10;3.90;;;3.90;99.90;;;;;;5033240;28;20449;-50
2024/01/13 12:00:53;;;;;;;5.07;3.33;;;3.90;99.90;;;;;;5032691;28;20768;-49
2024/01/13 12:03:18;;;;;;;5.83;3.97;;;3.90;99.90;;;;;;5033179;28;20282;-49
2024/01/13 12:05:44;;;;;;;6.60;4.20;;;3.90;99.90;;;;;;5032931;28;20176;-49
2024/01/13 12:08:10;;;;;;;5.97;4.17;;;3.90;99.90;;;;;;5032905;28;20283;-49
2024/01/13 12:10:44;;;;;;;8.20;4.90;;;3.90;99.90;;;;;;5032831;28;20409;-49
2024/01/13 12:13:17;;;;;;;8.40;5.03;;;4.00;99.90;;;;;;5032917;28;20181;-49
2024/01/13 12:15:46;;;;;;;7.70;4.57;;;3.90;99.90;;;;;;5032539;28;20461;-49
2024/01/13 12:18:22;;;;;;;9.40;5.57;;;4.00;99.90;;;;;;5032594;28;20925;-49
2024/01/13 12:20:50;;;;;;;10.77;5.40;;;4.00;99.90;;;;;;5032591;28;20984;-49
2024/01/13 12:23:17;;;;;;;11.90;5.23;;;4.00;99.90;;;;;;5033200;28;20510;-49
2024/01/13 12:25:43;;;;;;;9.93;5.30;;;4.00;99.90;;;;;;5033102;28;20434;-49
2024/01/13 12:28:08;;;;;;;10.80;6.07;;;4.00;99.90;;;;;;5032757;28;20414;-49
2024/01/13 12:30:38;;;;;;;9.73;5.40;;;4.10;99.90;;;;;;5032874;28;20373;-49
2024/01/13 12:33:04;;;;;;;10.10;5.33;;;4.10;99.90;;;;;;5032808;28;20200;-49
2024/01/13 12:35:30;;;;;;;8.60;5.97;;;4.10;99.90;;;;;;5032774;28;20865;-49
2024/01/13 12:37:56;;;;;;;9.70;5.80;;;4.10;99.90;;;;;;5034625;28;20515;-49
2024/01/13 12:40:22;;;;;;;13.40;6.93;;;4.10;99.90;;;;;;5036536;28;20288;-49
2024/01/13 12:42:47;;;;;;;14.10;5.50;;;4.10;99.90;;;;;;5036036;28;20564;-49
2024/01/13 12:45:15;;;;;;;11.40;5.70;;;4.10;99.90;;;;;;5036634;28;20198;-49
2024/01/13 12:47:41;;;;;;;11.00;6.20;;;4.10;99.90;;;;;;5036446;28;20523;-49
2024/01/13 12:50:09;;;;;;;12.33;6.10;;;4.20;99.90;;;;;;5035766;28;20474;-50